sensor_id;sensor_type;location;lat;lon;timestamp;pressure;altitude;pressure_sealevel;temperature;humidity
69257;BME280;56376;53.356;-1.748;2023-06-22T00:01:50;99791.88;;;15.45;100.00
69257;BME280;56376;53.356;-1.748;2023-06-22T00:04:15;99790.16;;;15.44;100.00
69257;BME280;56376;53.356;-1.748;2023-06-22T00:06:41;99788.63;;;15.40;100.00
69257;BME280;56376;53.356;-1.748;2023-06-22T00:09:06;99781.63;;;15.39;100.00
69257;BME280;56376;53.356;-1.748;2023-06-22T00:11:36;99793.03;;;15.40;100.00
69257;BME280;56376;53.356;-1.748;2023-06-22T00:14:02;99779.16;;;15.36;100.00
69257;BME280;56376;53.356;-1.748;2023-06-22T00:16:27;99775.94;;;15.31;100.00
69257;BME280;56376;53.356;-1.748;2023-06-22T00:18:53;99772.34;;;15.32;100.00
69257;BME280;56376;53.356;-1.748;2023-06-22T00:21:18;99779.41;;;15.31;100.00
69257;BME280;56376;53.356;-1.748;2023-06-22T00:23:46;99775.16;;;15.29;100.00
69257;BME280;56376;53.356;-1.748;2023-06-22T00:26:12;99774.38;;;15.27;100.00
69257;BME280;56376;53.356;-1.748;2023-06-22T00:28:38;99777.88;;;15.27;100.00
69257;BME280;56376;53.356;-1.748;2023-06-22T00:31:03;99778.91;;;15.25;100.00
69257;BME280;56376;53.356;-1.748;2023-06-22T00:33:29;99776.41;;;15.22;100.00
69257;BME280;56376;53.356;-1.748;2023-06-22T00:35:54;99774.78;;;15.19;100.00
69257;BME280;56376;53.356;-1.748;2023-06-22T00:38:20;99769.00;;;15.12;100.00
69257;BME280;56376;53.356;-1.748;2023-06-22T00:40:45;99769.00;;;15.12;100.00
69257;BME280;56376;53.356;-1.748;2023-06-22T00:43:11;99774.41;;;15.09;100.00
69257;BME280;56376;53.356;-1.748;2023-06-22T00:45:36;99777.06;;;15.09;100.00
69257;BME280;56376;53.356;-1.748;2023-06-22T00:48:02;99776.28;;;15.07;100.00
69257;BME280;56376;53.356;-1.748;2023-06-22T00:50:32;99776.41;;;15.04;100.00
69257;BME280;56376;53.356;-1.748;2023-06-22T00:53:01;99779.97;;;15.03;100.00
69257;BME280;56376;53.356;-1.748;2023-06-22T00:55:30;99783.53;;;15.02;100.00
69257;BME280;56376;53.356;-1.748;2023-06-22T00:57:55;99782.66;;;15.02;100.00
69257;BME280;56376;53.356;-1.748;2023-06-22T01:00:23;99780.28;;;14.97;100.00
69257;BME280;56376;53.356;-1.748;2023-06-22T01:02:50;99797.09;;;14.95;100.00
69257;BME280;56376;53.356;-1.748;2023-06-22T01:05:18;99790.25;;;14.90;100.00
69257;BME280;56376;53.356;-1.748;2023-06-22T01:10:16;99786.22;;;14.83;100.00
69257;BME280;56376;53.356;-1.748;2023-06-22T01:12:53;99795.13;;;14.81;100.00
69257;BME280;56376;53.356;-1.748;2023-06-22T01:15:35;99803.94;;;14.80;100.00
69257;BME280;56376;53.356;-1.748;2023-06-22T01:18:04;99804.97;;;14.77;100.00
69257;BME280;56376;53.356;-1.748;2023-06-22T01:20:31;99810.13;;;14.79;100.00
69257;BME280;56376;53.356;-1.748;2023-06-22T01:23:07;99798.84;;;14.77;100.00
69257;BME280;56376;53.356;-1.748;2023-06-22T01:25:47;99804.97;;;14.77;100.00
69257;BME280;56376;53.356;-1.748;2023-06-22T01:28:36;99804.00;;;14.78;100.00
69257;BME280;56376;53.356;-1.748;2023-06-22T01:31:02;99801.53;;;14.75;100.00
69257;BME280;56376;53.356;-1.748;2023-06-22T01:33:39;99815.47;;;14.77;100.00
69257;BME280;56376;53.356;-1.748;2023-06-22T01:36:06;99811.28;;;14.73;100.00
69257;BME280;56376;53.356;-1.748;2023-06-22T01:38:33;99820.00;;;14.74;100.00
69257;BME280;56376;53.356;-1.748;2023-06-22T01:41:00;99811.34;;;14.71;100.00
69257;BME280;56376;53.356;-1.748;2023-06-22T01:43:27;99816.59;;;14.71;100.00
69257;BME280;56376;53.356;-1.748;2023-06-22T01:45:54;99814.84;;;14.72;100.00
69257;BME280;56376;53.356;-1.748;2023-06-22T01:48:22;99817.53;;;14.70;100.00
69257;BME280;56376;53.356;-1.748;2023-06-22T01:50:48;99826.38;;;14.69;100.00
69257;BME280;56376;53.356;-1.748;2023-06-22T01:53:13;99823.81;;;14.68;100.00
69257;BME280;56376;53.356;-1.748;2023-06-22T01:55:39;99825.59;;;14.67;100.00
69257;BME280;56376;53.356;-1.748;2023-06-22T01:58:05;99822.16;;;14.65;100.00
69257;BME280;56376;53.356;-1.748;2023-06-22T02:00:34;99831.00;;;14.64;100.00
69257;BME280;56376;53.356;-1.748;2023-06-22T02:03:41;99825.81;;;14.63;100.00
69257;BME280;56376;53.356;-1.748;2023-06-22T02:06:05;99828.50;;;14.61;100.00
69257;BME280;56376;53.356;-1.748;2023-06-22T02:08:48;99827.84;;;14.56;100.00
69257;BME280;56376;53.356;-1.748;2023-06-22T02:11:15;99833.06;;;14.58;100.00
69257;BME280;56376;53.356;-1.748;2023-06-22T02:13:42;99833.91;;;14.58;100.00
69257;BME280;56376;53.356;-1.748;2023-06-22T02:16:10;99837.31;;;14.60;100.00
69257;BME280;56376;53.356;-1.748;2023-06-22T02:18:36;99835.53;;;14.61;100.00
69257;BME280;56376;53.356;-1.748;2023-06-22T02:21:02;99835.53;;;14.61;100.00
69257;BME280;56376;53.356;-1.748;2023-06-22T02:23:28;99833.75;;;14.61;100.00
69257;BME280;56376;53.356;-1.748;2023-06-22T02:25:53;99844.13;;;14.64;100.00
69257;BME280;56376;53.356;-1.748;2023-06-22T02:28:19;99833.75;;;14.61;100.00
69257;BME280;56376;53.356;-1.748;2023-06-22T02:30:44;99838.25;;;14.59;100.00
69257;BME280;56376;53.356;-1.748;2023-06-22T02:33:09;99832.28;;;14.56;100.00
69257;BME280;56376;53.356;-1.748;2023-06-22T02:35:35;99840.94;;;14.58;100.00
69257;BME280;56376;53.356;-1.748;2023-06-22T02:38:01;99839.16;;;14.58;100.00
69257;BME280;56376;53.356;-1.748;2023-06-22T02:40:31;99833.91;;;14.58;100.00
69257;BME280;56376;53.356;-1.748;2023-06-22T02:42:58;99831.28;;;14.58;100.00
69257;BME280;56376;53.356;-1.748;2023-06-22T02:45:26;99832.13;;;14.59;100.00
69257;BME280;56376;53.356;-1.748;2023-06-22T02:47:52;99834.84;;;14.57;100.00
69257;BME280;56376;53.356;-1.748;2023-06-22T02:50:17;99845.34;;;14.57;100.00
69257;BME280;56376;53.356;-1.748;2023-06-22T02:52:43;99839.25;;;14.57;100.00
69257;BME280;56376;53.356;-1.748;2023-06-22T02:55:08;99847.03;;;14.58;100.00
69257;BME280;56376;53.356;-1.748;2023-06-22T02:57:34;99838.25;;;14.59;100.00
69257;BME280;56376;53.356;-1.748;2023-06-22T02:59:59;99843.56;;;14.58;100.00
69257;BME280;56376;53.356;-1.748;2023-06-22T03:02:24;99838.25;;;14.59;100.00
69257;BME280;56376;53.356;-1.748;2023-06-22T03:04:51;99841.78;;;14.58;100.00
69257;BME280;56376;53.356;-1.748;2023-06-22T03:07:19;99845.34;;;14.57;100.00
69257;BME280;56376;53.356;-1.748;2023-06-22T03:09:45;99844.56;;;14.55;100.00
69257;BME280;56376;53.356;-1.748;2023-06-22T03:12:10;99841.09;;;14.55;100.00
69257;BME280;56376;53.356;-1.748;2023-06-22T03:14:36;99850.84;;;14.51;100.00
69257;BME280;56376;53.356;-1.748;2023-06-22T03:17:01;99842.22;;;14.49;100.00
69257;BME280;56376;53.356;-1.748;2023-06-22T03:19:29;99847.47;;;14.49;100.00
69257;BME280;56376;53.356;-1.748;2023-06-22T03:21:57;99847.53;;;14.47;100.00
69257;BME280;56376;53.356;-1.748;2023-06-22T03:24:22;99841.34;;;14.48;100.00
69257;BME280;56376;53.356;-1.748;2023-06-22T03:26:48;99843.91;;;14.50;100.00
69257;BME280;56376;53.356;-1.748;2023-06-22T03:29:13;99842.22;;;14.49;100.00
69257;BME280;56376;53.356;-1.748;2023-06-22T03:31:39;99833.38;;;14.50;100.00
69257;BME280;56376;53.356;-1.748;2023-06-22T03:34:04;99834.44;;;14.46;100.00
69257;BME280;56376;53.356;-1.748;2023-06-22T03:36:30;99840.50;;;14.48;100.00
69257;BME280;56376;53.356;-1.748;2023-06-22T03:38:55;99840.66;;;14.45;100.00
69257;BME280;56376;53.356;-1.748;2023-06-22T03:41:21;99836.38;;;14.42;100.00
69257;BME280;56376;53.356;-1.748;2023-06-22T03:43:46;99832.97;;;14.40;100.00
69257;BME280;56376;53.356;-1.748;2023-06-22T03:46:11;99837.59;;;14.35;100.00
69257;BME280;56376;53.356;-1.748;2023-06-22T03:48:37;99847.16;;;14.36;100.00
69257;BME280;56376;53.356;-1.748;2023-06-22T03:51:03;99844.69;;;14.33;100.00
69257;BME280;56376;53.356;-1.748;2023-06-22T03:53:29;99837.00;;;14.28;100.00
69257;BME280;56376;53.356;-1.748;2023-06-22T03:55:56;99844.06;;;14.28;100.00
69257;BME280;56376;53.356;-1.748;2023-06-22T03:58:21;99840.78;;;14.23;100.00
69257;BME280;56376;53.356;-1.748;2023-06-22T04:00:52;99845.19;;;14.22;100.00
69257;BME280;56376;53.356;-1.748;2023-06-22T04:03:18;99841.72;;;14.22;100.00
69257;BME280;56376;53.356;-1.748;2023-06-22T04:05:47;99846.97;;;14.22;100.00
69257;BME280;56376;53.356;-1.748;2023-06-22T04:08:13;99835.88;;;14.15;100.00
69257;BME280;56376;53.356;-1.748;2023-06-22T04:10:39;99841.22;;;14.14;100.00
69257;BME280;56376;53.356;-1.748;2023-06-22T04:13:04;99852.66;;;14.13;100.00
69257;BME280;56376;53.356;-1.748;2023-06-22T04:15:30;99833.47;;;14.11;100.00
69257;BME280;56376;53.356;-1.748;2023-06-22T04:17:55;99843.22;;;14.09;100.00
69257;BME280;56376;53.356;-1.748;2023-06-22T04:20:21;99850.31;;;14.06;100.00
69257;BME280;56376;53.356;-1.748;2023-06-22T04:22:47;99840.78;;;14.04;100.00
69257;BME280;56376;53.356;-1.748;2023-06-22T04:25:12;99839.16;;;14.01;100.00
69257;BME280;56376;53.356;-1.748;2023-06-22T04:27:38;99841.00;;;13.99;100.00
69257;BME280;56376;53.356;-1.748;2023-06-22T04:30:07;99848.88;;;13.99;100.00
69257;BME280;56376;53.356;-1.748;2023-06-22T04:32:33;99853.34;;;13.97;100.00
69257;BME280;56376;53.356;-1.748;2023-06-22T04:35:01;99849.94;;;13.95;100.00
69257;BME280;56376;53.356;-1.748;2023-06-22T04:37:26;99848.09;;;13.97;100.00
69257;BME280;56376;53.356;-1.748;2023-06-22T04:39:52;99836.88;;;13.94;100.00
69257;BME280;56376;53.356;-1.748;2023-06-22T04:42:18;99841.19;;;13.95;100.00
69257;BME280;56376;53.356;-1.748;2023-06-22T04:44:43;99845.59;;;13.94;100.00
69257;BME280;56376;53.356;-1.748;2023-06-22T04:47:08;99842.13;;;13.94;100.00
69257;BME280;56376;53.356;-1.748;2023-06-22T04:49:36;99836.88;;;13.94;100.00
69257;BME280;56376;53.356;-1.748;2023-06-22T04:52:07;99841.19;;;13.95;100.00
69257;BME280;56376;53.356;-1.748;2023-06-22T04:54:33;99829.84;;;13.94;100.00
69257;BME280;56376;53.356;-1.748;2023-06-22T04:57:03;99835.09;;;13.94;100.00
69257;BME280;56376;53.356;-1.748;2023-06-22T04:59:29;99833.31;;;13.95;100.00
69257;BME280;56376;53.356;-1.748;2023-06-22T05:01:55;99834.25;;;13.94;100.00
69257;BME280;56376;53.356;-1.748;2023-06-22T05:04:24;99845.59;;;13.94;100.00
69257;BME280;56376;53.356;-1.748;2023-06-22T05:06:51;99846.47;;;13.95;100.00
69257;BME280;56376;53.356;-1.748;2023-06-22T05:09:16;99840.28;;;13.96;100.00
69257;BME280;56376;53.356;-1.748;2023-06-22T05:11:45;99835.91;;;13.96;100.00
69257;BME280;56376;53.356;-1.748;2023-06-22T05:14:11;99838.56;;;13.95;100.00
69257;BME280;56376;53.356;-1.748;2023-06-22T05:16:37;99844.63;;;13.97;100.00
69257;BME280;56376;53.356;-1.748;2023-06-22T05:19:03;99842.78;;;13.99;100.00
69257;BME280;56376;53.356;-1.748;2023-06-22T05:21:29;99844.53;;;13.98;100.00
69257;BME280;56376;53.356;-1.748;2023-06-22T05:23:56;99849.72;;;14.00;100.00
69257;BME280;56376;53.356;-1.748;2023-06-22T05:26:29;99842.50;;;14.05;100.00
69257;BME280;56376;53.356;-1.748;2023-06-22T05:28:55;99849.31;;;14.09;100.00
69257;BME280;56376;53.356;-1.748;2023-06-22T05:31:21;99853.50;;;14.13;100.00
69257;BME280;56376;53.356;-1.748;2023-06-22T05:33:47;99848.88;;;14.18;100.00
69257;BME280;56376;53.356;-1.748;2023-06-22T05:36:13;99847.69;;;14.25;100.00
69257;BME280;56376;53.356;-1.748;2023-06-22T05:38:39;99847.47;;;14.30;100.00
69257;BME280;56376;53.356;-1.748;2023-06-22T05:41:06;99865.50;;;14.38;100.00
69257;BME280;56376;53.356;-1.748;2023-06-22T05:43:31;99854.78;;;14.42;100.00
69257;BME280;56376;53.356;-1.748;2023-06-22T05:45:58;99847.59;;;14.46;100.00
69257;BME280;56376;53.356;-1.748;2023-06-22T05:48:23;99856.09;;;14.51;100.00
69257;BME280;56376;53.356;-1.748;2023-06-22T05:50:49;99860.34;;;14.55;100.00
69257;BME280;56376;53.356;-1.748;2023-06-22T05:53:14;99857.56;;;14.58;100.00
69257;BME280;56376;53.356;-1.748;2023-06-22T05:55:39;99856.56;;;14.61;100.00
69257;BME280;56376;53.356;-1.748;2023-06-22T05:58:06;99852.94;;;14.63;100.00
69257;BME280;56376;53.356;-1.748;2023-06-22T06:00:31;99857.28;;;14.64;100.00
69257;BME280;56376;53.356;-1.748;2023-06-22T06:02:58;99863.19;;;14.69;100.00
69257;BME280;56376;53.356;-1.748;2023-06-22T06:05:28;99861.28;;;14.71;100.00
69257;BME280;56376;53.356;-1.748;2023-06-22T06:07:54;99860.38;;;14.73;100.00
69257;BME280;56376;53.356;-1.748;2023-06-22T06:10:19;99857.69;;;14.74;100.00
69257;BME280;56376;53.356;-1.748;2023-06-22T06:12:44;99861.97;;;14.77;100.00
69257;BME280;56376;53.356;-1.748;2023-06-22T06:15:10;99863.66;;;14.78;100.00
69257;BME280;56376;53.356;-1.748;2023-06-22T06:17:35;99860.03;;;14.80;100.00
69257;BME280;56376;53.356;-1.748;2023-06-22T06:20:01;99857.16;;;14.85;100.00
69257;BME280;56376;53.356;-1.748;2023-06-22T06:22:28;99864.06;;;14.87;100.00
69257;BME280;56376;53.356;-1.748;2023-06-22T06:24:53;99864.75;;;14.91;100.00
69257;BME280;56376;53.356;-1.748;2023-06-22T06:27:19;99861.91;;;14.96;100.00
69257;BME280;56376;53.356;-1.748;2023-06-22T06:29:44;99868.47;;;15.04;100.00
69257;BME280;56376;53.356;-1.748;2023-06-22T06:32:13;99861.06;;;15.12;100.00
69257;BME280;56376;53.356;-1.748;2023-06-22T06:34:38;99861.53;;;15.21;100.00
69257;BME280;56376;53.356;-1.748;2023-06-22T06:37:04;99864.63;;;15.29;100.00
69257;BME280;56376;53.356;-1.748;2023-06-22T06:39:29;99865.88;;;15.39;100.00
69257;BME280;56376;53.356;-1.748;2023-06-22T06:41:54;99862.84;;;15.47;100.00
69257;BME280;56376;53.356;-1.748;2023-06-22T06:44:20;99865.06;;;15.54;100.00
69257;BME280;56376;53.356;-1.748;2023-06-22T06:46:49;99862.31;;;15.57;100.00
69257;BME280;56376;53.356;-1.748;2023-06-22T06:49:15;99866.56;;;15.60;100.00
69257;BME280;56376;53.356;-1.748;2023-06-22T06:51:40;99862.91;;;15.63;100.00
69257;BME280;56376;53.356;-1.748;2023-06-22T06:54:05;99865.47;;;15.64;100.00
69257;BME280;56376;53.356;-1.748;2023-06-22T06:56:31;99877.47;;;15.70;100.00
69257;BME280;56376;53.356;-1.748;2023-06-22T06:58:58;99880.03;;;15.71;100.00
69257;BME280;56376;53.356;-1.748;2023-06-22T07:01:23;99882.50;;;15.74;100.00
69257;BME280;56376;53.356;-1.748;2023-06-22T07:03:49;99883.38;;;15.75;100.00
69257;BME280;56376;53.356;-1.748;2023-06-22T07:06:14;99875.22;;;15.79;100.00
69257;BME280;56376;53.356;-1.748;2023-06-22T07:08:41;99882.22;;;15.81;100.00
69257;BME280;56376;53.356;-1.748;2023-06-22T07:11:08;99882.88;;;15.84;100.00
69257;BME280;56376;53.356;-1.748;2023-06-22T07:13:33;99875.94;;;15.83;100.00
69257;BME280;56376;53.356;-1.748;2023-06-22T07:15:58;99884.44;;;15.88;100.00
69257;BME280;56376;53.356;-1.748;2023-06-22T07:18:24;99876.53;;;15.88;100.00
69257;BME280;56376;53.356;-1.748;2023-06-22T07:20:49;99887.69;;;15.93;100.00
69257;BME280;56376;53.356;-1.748;2023-06-22T07:23:15;99885.72;;;15.97;100.00
69257;BME280;56376;53.356;-1.748;2023-06-22T07:25:41;99888.28;;;15.98;100.00
69257;BME280;56376;53.356;-1.748;2023-06-22T07:28:07;99883.69;;;16.02;100.00
69257;BME280;56376;53.356;-1.748;2023-06-22T07:30:33;99891.38;;;16.07;100.00
69257;BME280;56376;53.356;-1.748;2023-06-22T07:32:59;99889.50;;;16.09;100.00
69257;BME280;56376;53.356;-1.748;2023-06-22T07:35:29;99887.53;;;16.12;100.00
69257;BME280;56376;53.356;-1.748;2023-06-22T07:37:54;99887.53;;;16.12;100.00
69257;BME280;56376;53.356;-1.748;2023-06-22T07:40:20;99882.03;;;16.17;100.00
69257;BME280;56376;53.356;-1.748;2023-06-22T07:42:45;99883.75;;;16.18;100.00
69257;BME280;56376;53.356;-1.748;2023-06-22T07:45:13;99882.56;;;16.23;100.00
69257;BME280;56376;53.356;-1.748;2023-06-22T07:47:38;99890.22;;;16.28;100.00
69257;BME280;56376;53.356;-1.748;2023-06-22T07:50:04;99894.97;;;16.37;100.00
69257;BME280;56376;53.356;-1.748;2023-06-22T07:52:30;99879.75;;;16.42;100.00
69257;BME280;56376;53.356;-1.748;2023-06-22T07:54:55;99882.84;;;16.51;100.00
69257;BME280;56376;53.356;-1.748;2023-06-22T07:57:21;99883.28;;;16.59;100.00
69257;BME280;56376;53.356;-1.748;2023-06-22T07:59:47;99880.97;;;16.69;100.00
69257;BME280;56376;53.356;-1.748;2023-06-22T08:02:12;99874.69;;;16.87;100.00
69257;BME280;56376;53.356;-1.748;2023-06-22T08:04:38;99881.78;;;17.01;100.00
69257;BME280;56376;53.356;-1.748;2023-06-22T08:07:04;99879.34;;;17.14;100.00
69257;BME280;56376;53.356;-1.748;2023-06-22T08:09:32;99877.84;;;17.24;100.00
69257;BME280;56376;53.356;-1.748;2023-06-22T08:11:58;99890.03;;;17.41;100.00
69257;BME280;56376;53.356;-1.748;2023-06-22T08:14:29;99878.88;;;17.51;100.00
69257;BME280;56376;53.356;-1.748;2023-06-22T08:16:54;99876.50;;;17.61;100.00
69257;BME280;56376;53.356;-1.748;2023-06-22T08:19:20;99882.00;;;17.72;100.00
69257;BME280;56376;53.356;-1.748;2023-06-22T08:21:45;99884.22;;;17.80;100.00
69257;BME280;56376;53.356;-1.748;2023-06-22T08:24:10;99885.44;;;17.89;100.00
69257;BME280;56376;53.356;-1.748;2023-06-22T08:26:36;99888.66;;;17.94;100.00
69257;BME280;56376;53.356;-1.748;2023-06-22T08:29:05;99886.41;;;18.02;100.00
69257;BME280;56376;53.356;-1.748;2023-06-22T08:31:31;99880.72;;;18.08;100.00
69257;BME280;56376;53.356;-1.748;2023-06-22T08:34:00;99885.75;;;18.13;100.00
69257;BME280;56376;53.356;-1.748;2023-06-22T08:36:25;99877.41;;;18.19;100.00
69257;BME280;56376;53.356;-1.748;2023-06-22T08:38:54;99876.09;;;18.26;100.00
69257;BME280;56376;53.356;-1.748;2023-06-22T08:41:22;99878.09;;;18.37;100.00
69257;BME280;56376;53.356;-1.748;2023-06-22T08:43:48;99875.25;;;18.40;100.00
69257;BME280;56376;53.356;-1.748;2023-06-22T08:46:13;99875.13;;;18.42;100.00
69257;BME280;56376;53.356;-1.748;2023-06-22T08:48:39;99879.28;;;18.46;100.00
69257;BME280;56376;53.356;-1.748;2023-06-22T08:51:04;99876.56;;;18.47;100.00
69257;BME280;56376;53.356;-1.748;2023-06-22T08:53:29;99880.81;;;18.50;100.00
69257;BME280;56376;53.356;-1.748;2023-06-22T08:55:55;99879.00;;;18.50;100.00
69257;BME280;56376;53.356;-1.748;2023-06-22T08:58:20;99881.53;;;18.52;100.00
69257;BME280;56376;53.356;-1.748;2023-06-22T09:00:47;99884.94;;;18.54;100.00
69257;BME280;56376;53.356;-1.748;2023-06-22T09:03:12;99881.25;;;18.56;100.00
69257;BME280;56376;53.356;-1.748;2023-06-22T09:05:38;99886.31;;;18.59;100.00
69257;BME280;56376;53.356;-1.748;2023-06-22T09:08:03;99888.03;;;18.60;100.00
69257;BME280;56376;53.356;-1.748;2023-06-22T09:10:29;99877.56;;;18.59;100.00
69257;BME280;56376;53.356;-1.748;2023-06-22T09:12:54;99891.44;;;18.63;100.00
69257;BME280;56376;53.356;-1.748;2023-06-22T09:15:20;99887.00;;;18.63;100.00
69257;BME280;56376;53.356;-1.748;2023-06-22T09:17:45;99885.09;;;18.65;100.00
69257;BME280;56376;53.356;-1.748;2023-06-22T09:20:11;99888.50;;;18.67;100.00
69257;BME280;56376;53.356;-1.748;2023-06-22T09:22:37;99887.34;;;18.71;100.00
69257;BME280;56376;53.356;-1.748;2023-06-22T09:25:03;99894.19;;;18.75;100.00
69257;BME280;56376;53.356;-1.748;2023-06-22T09:27:28;99881.59;;;18.79;100.00
69257;BME280;56376;53.356;-1.748;2023-06-22T09:29:54;99889.03;;;18.87;100.00
69257;BME280;56376;53.356;-1.748;2023-06-22T09:32:19;99880.78;;;18.91;100.00
69257;BME280;56376;53.356;-1.748;2023-06-22T09:34:45;99879.53;;;18.97;100.00
69257;BME280;56376;53.356;-1.748;2023-06-22T09:37:11;99887.72;;;19.07;100.00
69257;BME280;56376;53.356;-1.748;2023-06-22T09:39:36;99877.47;;;19.15;100.00
69257;BME280;56376;53.356;-1.748;2023-06-22T09:42:02;99885.78;;;19.23;100.00
69257;BME280;56376;53.356;-1.748;2023-06-22T09:44:27;99887.03;;;19.30;100.00
69257;BME280;56376;53.356;-1.748;2023-06-22T09:46:53;99884.84;;;19.37;100.00
69257;BME280;56376;53.356;-1.748;2023-06-22T09:49:18;99882.84;;;19.40;100.00
69257;BME280;56376;53.356;-1.748;2023-06-22T09:51:43;99893.03;;;19.46;100.00
69257;BME280;56376;53.356;-1.748;2023-06-22T09:54:09;99885.41;;;19.55;100.00
69257;BME280;56376;53.356;-1.748;2023-06-22T09:56:34;99889.34;;;19.62;100.00
69257;BME280;56376;53.356;-1.748;2023-06-22T09:59:00;99890.00;;;19.65;100.00
69257;BME280;56376;53.356;-1.748;2023-06-22T10:01:25;99896.97;;;19.66;100.00
69257;BME280;56376;53.356;-1.748;2023-06-22T10:03:52;99902.09;;;19.70;100.00
69257;BME280;56376;53.356;-1.748;2023-06-22T10:06:21;99892.34;;;19.70;100.00
69257;BME280;56376;53.356;-1.748;2023-06-22T10:08:46;99895.94;;;19.69;100.00
69257;BME280;56376;53.356;-1.748;2023-06-22T10:11:13;99898.69;;;19.67;100.00
69257;BME280;56376;53.356;-1.748;2023-06-22T10:13:38;99907.88;;;19.62;100.00
69257;BME280;56376;53.356;-1.748;2023-06-22T10:16:04;99907.25;;;19.58;100.00
69257;BME280;56376;53.356;-1.748;2023-06-22T10:18:29;99903.09;;;19.54;100.00
69257;BME280;56376;53.356;-1.748;2023-06-22T10:20:55;99905.97;;;19.51;100.00
69257;BME280;56376;53.356;-1.748;2023-06-22T10:23:22;99905.13;;;19.51;100.00
69257;BME280;56376;53.356;-1.748;2023-06-22T10:25:47;99907.97;;;19.48;100.00
69257;BME280;56376;53.356;-1.748;2023-06-22T10:28:13;99907.78;;;19.51;100.00
69257;BME280;56376;53.356;-1.748;2023-06-22T10:30:39;99911.34;;;19.50;100.00
69257;BME280;56376;53.356;-1.748;2023-06-22T10:33:07;99907.25;;;19.45;100.00
69257;BME280;56376;53.356;-1.748;2023-06-22T10:35:32;99913.38;;;19.46;100.00
69257;BME280;56376;53.356;-1.748;2023-06-22T10:37:59;99907.13;;;19.47;100.00
69257;BME280;56376;53.356;-1.748;2023-06-22T10:40:25;99900.66;;;19.51;100.00
69257;BME280;56376;53.356;-1.748;2023-06-22T10:42:57;99911.69;;;19.58;100.00
69257;BME280;56376;53.356;-1.748;2023-06-22T10:45:23;99917.44;;;19.64;100.00
69257;BME280;56376;53.356;-1.748;2023-06-22T10:47:49;99920.63;;;19.70;100.00
69257;BME280;56376;53.356;-1.748;2023-06-22T10:50:14;99917.59;;;19.76;100.00
69257;BME280;56376;53.356;-1.748;2023-06-22T10:52:40;99913.66;;;19.81;100.00
69257;BME280;56376;53.356;-1.748;2023-06-22T10:55:07;99920.56;;;19.84;100.00
69257;BME280;56376;53.356;-1.748;2023-06-22T10:57:33;99914.94;;;19.88;100.00
69257;BME280;56376;53.356;-1.748;2023-06-22T10:59:59;99922.38;;;19.96;100.00
69257;BME280;56376;53.356;-1.748;2023-06-22T11:02:24;99910.56;;;20.00;100.00
69257;BME280;56376;53.356;-1.748;2023-06-22T11:04:50;99915.56;;;20.05;100.00
69257;BME280;56376;53.356;-1.748;2023-06-22T11:07:16;99904.66;;;20.09;100.00
69257;BME280;56376;53.356;-1.748;2023-06-22T11:09:43;99917.91;;;20.09;100.00
69257;BME280;56376;53.356;-1.748;2023-06-22T11:12:08;99902.22;;;20.06;100.00
69257;BME280;56376;53.356;-1.748;2023-06-22T11:14:34;99908.38;;;20.07;100.00
69257;BME280;56376;53.356;-1.748;2023-06-22T11:16:59;99912.59;;;20.09;100.00
69257;BME280;56376;53.356;-1.748;2023-06-22T11:19:24;99922.06;;;20.14;100.00
69257;BME280;56376;53.356;-1.748;2023-06-22T11:21:50;99914.94;;;20.14;100.00
69257;BME280;56376;53.356;-1.748;2023-06-22T11:24:16;99920.03;;;20.17;100.00
69257;BME280;56376;53.356;-1.748;2023-06-22T11:26:41;99910.25;;;20.18;100.00
69257;BME280;56376;53.356;-1.748;2023-06-22T11:29:07;99914.50;;;20.20;100.00
69257;BME280;56376;53.356;-1.748;2023-06-22T11:31:36;99906.31;;;20.23;100.00
69257;BME280;56376;53.356;-1.748;2023-06-22T11:34:02;99906.13;;;20.26;100.00
69257;BME280;56376;53.356;-1.748;2023-06-22T11:36:28;99900.59;;;20.29;100.00
69257;BME280;56376;53.356;-1.748;2023-06-22T11:38:54;99902.19;;;20.32;100.00
69257;BME280;56376;53.356;-1.748;2023-06-22T11:41:19;99898.47;;;20.35;100.00
69257;BME280;56376;53.356;-1.748;2023-06-22T11:43:45;99897.50;;;20.36;100.00
69257;BME280;56376;53.356;-1.748;2023-06-22T11:46:10;99910.56;;;20.39;100.00
69257;BME280;56376;53.356;-1.748;2023-06-22T11:48:36;99898.13;;;20.39;100.00
69257;BME280;56376;53.356;-1.748;2023-06-22T11:51:02;99894.53;;;20.40;100.00
69257;BME280;56376;53.356;-1.748;2023-06-22T11:53:29;99893.44;;;20.43;100.00
69257;BME280;56376;53.356;-1.748;2023-06-22T11:55:54;99893.22;;;20.46;100.00
69257;BME280;56376;53.356;-1.748;2023-06-22T11:58:21;99892.81;;;20.52;100.00
69257;BME280;56376;53.356;-1.748;2023-06-22T12:00:48;99894.28;;;20.56;100.00
69257;BME280;56376;53.356;-1.748;2023-06-22T12:03:13;99894.28;;;20.56;100.00
69257;BME280;56376;53.356;-1.748;2023-06-22T12:05:40;99893.34;;;20.57;100.00
69257;BME280;56376;53.356;-1.748;2023-06-22T12:08:06;99890.69;;;20.57;100.00
69257;BME280;56376;53.356;-1.748;2023-06-22T12:10:31;99889.63;;;20.60;100.00
69257;BME280;56376;53.356;-1.748;2023-06-22T12:12:57;99894.59;;;20.64;100.00
69257;BME280;56376;53.356;-1.748;2023-06-22T12:15:23;99889.91;;;20.68;100.00
69257;BME280;56376;53.356;-1.748;2023-06-22T12:17:49;99895.63;;;20.74;100.00
69257;BME280;56376;53.356;-1.748;2023-06-22T12:20:14;99897.97;;;20.79;100.00
69257;BME280;56376;53.356;-1.748;2023-06-22T12:22:40;99900.47;;;20.81;100.00
69257;BME280;56376;53.356;-1.748;2023-06-22T12:25:07;99893.25;;;20.83;100.00
69257;BME280;56376;53.356;-1.748;2023-06-22T12:27:32;99896.66;;;20.85;100.00
69257;BME280;56376;53.356;-1.748;2023-06-22T12:29:58;99904.38;;;20.88;99.84
69257;BME280;56376;53.356;-1.748;2023-06-22T12:32:23;99901.72;;;20.88;99.60
69257;BME280;56376;53.356;-1.748;2023-06-22T12:34:49;99908.22;;;20.84;99.75
69257;BME280;56376;53.356;-1.748;2023-06-22T12:37:15;99911.66;;;20.73;99.76
69257;BME280;56376;53.356;-1.748;2023-06-22T12:39:40;99906.59;;;20.70;100.00